| time (UTC) | temp F | wind direction | speed MPH | gust MPH | rain 1hr in | rain 24hr in | rain mn in | humidity % | barometer mb |
| 20260507233108 | 59 | 294 | 8.0 | 20.0 | 0.00 | 0.20 | 0.19 | 24 | 1018.7 |
| 20260507231545 | 60 | 311 | 7.0 | 16.0 | 0.00 | 0.20 | 0.19 | 25 | 1018.8 |
| 20260507230047 | 59 | 218 | 7.0 | 16.0 | 0.00 | 0.20 | 0.19 | 24 | 1018.9 |
| 20260507224550 | 59 | 223 | 11.0 | 18.0 | 0.00 | 0.20 | 0.19 | 24 | 1019.0 |
| 20260507223057 | 59 | 263 | 10.0 | 15.0 | 0.00 | 0.20 | 0.19 | 24 | 1019.2 |
| 20260507221547 | 59 | 233 | 7.0 | 14.0 | 0.00 | 0.20 | 0.19 | 26 | 1019.1 |
| 20260507220052 | 58 | 234 | 7.0 | 14.0 | 0.00 | 0.20 | 0.19 | 25 | 1019.3 |
| 20260507214550 | 57 | 282 | 11.0 | 17.0 | 0.00 | 0.20 | 0.19 | 27 | 1019.4 |
| 20260507213044 | 57 | 267 | 11.0 | 20.0 | 0.00 | 0.20 | 0.19 | 28 | 1019.6 |
| 20260507211555 | 56 | 243 | 13.0 | 22.0 | 0.00 | 0.20 | 0.19 | 25 | 1019.9 |
| 20260507210106 | 56 | 248 | 8.0 | 17.0 | 0.00 | 0.20 | 0.19 | 24 | 1020.1 |
| 20260507204548 | 56 | 227 | 5.0 | 12.0 | 0.00 | 0.20 | 0.19 | 24 | 1020.4 |
| 20260507203048 | 55 | 288 | 7.0 | 16.0 | 0.00 | 0.20 | 0.19 | 23 | 1020.6 |
| 20260507201547 | 54 | 257 | 8.0 | 18.0 | 0.00 | 0.20 | 0.19 | 26 | 1020.8 |
| 20260507200056 | 54 | 284 | 9.0 | 20.0 | 0.00 | 0.20 | 0.19 | 24 | 1020.9 |
| 20260507194559 | 53 | 220 | 9.0 | 18.0 | 0.00 | 0.20 | 0.19 | 23 | 1021.3 |
| 20260507193048 | 53 | 257 | 12.0 | 19.0 | 0.00 | 0.20 | 0.19 | 24 | 1021.4 |
| 20260507191548 | 52 | 280 | 11.0 | 21.0 | 0.00 | 0.20 | 0.19 | 26 | 1021.6 |
| 20260507190050 | 52 | 250 | 12.0 | 20.0 | 0.00 | 0.20 | 0.19 | 23 | 1021.6 |
| 20260507184547 | 51 | 239 | 15.0 | 26.0 | 0.00 | 0.20 | 0.19 | 22 | 1021.7 |
| 20260507183111 | 52 | 289 | 8.0 | 19.0 | 0.00 | 0.20 | 0.19 | 23 | 1021.8 |
| 20260507181556 | 51 | 277 | 15.0 | 24.0 | 0.01 | 0.20 | 0.19 | 24 | 1021.9 |
| 20260507180049 | 51 | 241 | 12.0 | 21.0 | 0.04 | 0.20 | 0.19 | 23 | 1022.0 |
| 20260507174550 | 50 | 236 | 10.0 | 17.0 | 0.06 | 0.20 | 0.19 | 26 | 1022.0 |
| 20260507173048 | 50 | 264 | 10.0 | 20.0 | 0.09 | 0.20 | 0.19 | 26 | 1022.2 |
| 20260507171550 | 49 | 202 | 8.0 | 15.0 | 0.09 | 0.18 | 0.17 | 25 | 1022.2 |
| 20260507170053 | 49 | 308 | 3.0 | 15.0 | 0.09 | 0.16 | 0.15 | 24 | 1022.3 |
| 20260507164606 | 48 | 276 | 8.0 | 14.0 | 0.09 | 0.14 | 0.13 | 24 | 1022.2 |
| 20260507163053 | 48 | 234 | 10.0 | 22.0 | 0.07 | 0.11 | 0.10 | 25 | 1022.2 |
| 20260507161555 | 46 | 294 | 10.0 | 19.0 | 0.06 | 0.09 | 0.08 | 29 | 1022.2 |
| 20260507160051 | 46 | 251 | 10.0 | 18.0 | 0.06 | 0.07 | 0.06 | 25 | 1022.4 |
| 20260507154556 | 45 | 263 | 12.0 | 22.0 | 0.04 | 0.05 | 0.04 | 28 | 1022.4 |
| 20260507153048 | 45 | 257 | 12.0 | 21.0 | 0.03 | 0.04 | 0.03 | 27 | 1022.4 |
| 20260507151548 | 44 | 255 | 12.0 | 26.0 | 0.02 | 0.03 | 0.02 | 25 | 1022.5 |
| 20260507150053 | 44 | 234 | 11.0 | 18.0 | 0.00 | 0.01 | 0.00 | 26 | 1022.4 |
| 20260507144545 | 43 | 290 | 10.0 | 22.0 | 0.00 | 0.01 | 0.00 | 29 | 1022.5 |
| 20260507143047 | 43 | 275 | 14.0 | 24.0 | 0.00 | 0.01 | 0.00 | 25 | 1022.7 |
| 20260507141543 | 42 | 337 | 12.0 | 21.0 | 0.00 | 0.01 | 0.00 | 27 | 1022.5 |
| 20260507140049 | 42 | 280 | 11.0 | 20.0 | 0.00 | 0.01 | 0.00 | 26 | 1022.9 |
| 20260507134549 | 41 | 257 | 10.0 | 18.0 | 0.00 | 0.01 | 0.00 | 29 | 1023.0 |
| 20260507133051 | 41 | 228 | 11.0 | 19.0 | 0.00 | 0.01 | 0.00 | 30 | 1023.0 |
| 20260507131545 | 40 | 249 | 11.0 | 24.0 | 0.00 | 0.01 | 0.00 | 31 | 1023.0 |
| 20260507130043 | 39 | 288 | 12.0 | 20.0 | 0.00 | 0.01 | 0.00 | 33 | 1022.7 |
| 20260507124547 | 39 | 248 | 15.0 | 23.0 | 0.00 | 0.01 | 0.00 | 33 | 1022.7 |
| 20260507123043 | 39 | 252 | 13.0 | 25.0 | 0.00 | 0.01 | 0.00 | 33 | 1022.3 |
| 20260507121539 | 38 | 245 | 11.0 | 21.0 | 0.00 | 0.01 | 0.00 | 35 | 1022.1 |
| 20260507120052 | 36 | 283 | 11.0 | 16.0 | 0.00 | 0.01 | 0.00 | 39 | 1021.9 |
| 20260507114603 | 35 | 243 | 8.0 | 14.0 | 0.00 | 0.01 | 0.00 | 42 | 1022.0 |
| 20260507113104 | 35 | 231 | 9.0 | 14.0 | 0.00 | 0.01 | 0.00 | 45 | 1022.0 |
| 20260507111547 | 35 | 257 | 9.0 | 16.0 | 0.00 | 0.01 | 0.00 | 45 | 1022.2 |
| 20260507110043 | 35 | 243 | 10.0 | 15.0 | 0.00 | 0.01 | 0.00 | 45 | 1022.2 |
| 20260507104546 | 36 | 250 | 9.0 | 13.0 | 0.00 | 0.01 | 0.00 | 44 | 1022.3 |
| 20260507103051 | 37 | 260 | 3.0 | 12.0 | 0.00 | 0.01 | 0.00 | 40 | 1022.2 |
| 20260507101548 | 37 | 261 | 6.0 | 15.0 | 0.00 | 0.01 | 0.00 | 41 | 1022.4 |
| 20260507100057 | 37 | 267 | 6.0 | 13.0 | 0.00 | 0.01 | 0.00 | 41 | 1022.3 |
| 20260507094549 | 37 | 256 | 6.0 | 12.0 | 0.00 | 0.01 | 0.00 | 44 | 1022.3 |
| 20260507093050 | 38 | 250 | 5.0 | 16.0 | 0.00 | 0.01 | 0.00 | 39 | 1022.0 |
| 20260507091558 | 38 | 259 | 6.0 | 21.0 | 0.00 | 0.01 | 0.00 | 41 | 1021.8 |
| 20260507090044 | 37 | 248 | 5.0 | 17.0 | 0.00 | 0.01 | 0.00 | 46 | 1021.9 |
| 20260507084555 | 38 | 240 | 14.0 | 20.0 | 0.00 | 0.01 | 0.00 | 45 | 1021.9 |
| 20260507083047 | 37 | 247 | 10.0 | 25.0 | 0.00 | 0.01 | 0.00 | 49 | 1021.9 |
| 20260507081549 | 37 | 244 | 10.0 | 18.0 | 0.00 | 0.01 | 0.00 | 51 | 1021.9 |
| 20260507080050 | 37 | 258 | 8.0 | 23.0 | 0.00 | 0.01 | 0.00 | 53 | 1022.1 |
| 20260507074555 | 36 | 227 | 1.0 | 10.0 | 0.00 | 0.01 | 0.00 | 54 | 1022.4 |
| 20260507073047 | 37 | 246 | 4.0 | 14.0 | 0.00 | 0.01 | 0.00 | 52 | 1022.4 |
| 20260507071545 | 37 | 209 | 7.0 | 15.0 | 0.00 | 0.01 | 0.00 | 53 | 1022.4 |
| 20260507070057 | 37 | 254 | 12.0 | 19.0 | 0.00 | 0.01 | 0.00 | 54 | 1022.3 |
| 20260507064541 | 37 | 275 | 12.0 | 22.0 | 0.00 | 0.01 | 0.00 | 55 | 1022.4 |
| 20260507063043 | 37 | 273 | 11.0 | 23.0 | 0.00 | 0.01 | 0.00 | 56 | 1022.2 |
| 20260507061545 | 36 | 236 | 8.0 | 14.0 | 0.00 | 0.01 | 0.00 | 58 | 1022.2 |
| 20260507060057 | 37 | 253 | 5.0 | 18.0 | 0.00 | 0.01 | 0.00 | 58 | 1021.9 |
| 20260507054545 | 36 | 263 | 8.0 | 15.0 | 0.00 | 0.01 | 0.01 | 59 | 1021.8 |
| 20260507053046 | 35 | 171 | 6.0 | 17.0 | 0.00 | 0.01 | 0.01 | 65 | 1021.6 |
| 20260507051544 | 33 | 29 | 2.0 | 7.0 | 0.00 | 0.01 | 0.01 | 76 | 1021.6 |
| 20260507050050 | 33 | 331 | 1.0 | 11.0 | 0.00 | 0.01 | 0.01 | 77 | 1021.7 |
| 20260507044601 | 32 | 325 | 0.0 | 8.0 | 0.00 | 0.01 | 0.01 | 83 | 1021.6 |
| 20260507043100 | 30 | 0 | 0.0 | 3.0 | 0.00 | 0.01 | 0.01 | 85 | 1021.4 |
| 20260507041549 | 29 | 0 | 0.0 | 1.0 | 0.00 | 0.01 | 0.01 | 85 | 1021.6 |
| 20260507040050 | 27 | 0 | 0.0 | 4.0 | 0.00 | 0.01 | 0.01 | 87 | 1021.5 |
| 20260507034553 | 27 | 0 | 0.0 | 0.0 | 0.00 | 0.01 | 0.01 | 84 | 1021.3 |
| 20260507033048 | 28 | 117 | 1.0 | 3.0 | 0.00 | 0.01 | 0.01 | 84 | 1021.3 |
| 20260507031549 | 30 | 317 | 0.0 | 4.0 | 0.00 | 0.01 | 0.01 | 85 | 1021.1 |
| 20260507030046 | 26 | 265 | 0.0 | 2.0 | 0.00 | 0.01 | 0.01 | 85 | 1020.9 |
| 20260507024554 | 27 | 0 | 0.0 | 5.0 | 0.00 | 0.01 | 0.01 | 87 | 1020.8 |
| 20260507023104 | 26 | 270 | 2.0 | 6.0 | 0.01 | 0.01 | 0.01 | 88 | 1020.8 |
| 20260507021551 | 25 | 226 | 2.0 | 5.0 | 0.01 | 0.01 | 0.01 | 87 | 1020.7 |
| 20260507020053 | 25 | 220 | 4.0 | 8.0 | 0.01 | 0.01 | 0.01 | 86 | 1020.7 |
| 20260507014553 | 25 | 249 | 2.0 | 6.0 | 0.01 | 0.01 | 0.01 | 87 | 1020.7 |
| 20260507013047 | 27 | 0 | 0.0 | 2.0 | 0.00 | 0.00 | 0.00 | 86 | 1020.7 |
| 20260507011551 | 31 | 259 | 0.0 | 1.0 | 0.00 | 0.00 | 0.00 | 83 | 1020.7 |
| 20260507010047 | 32 | 236 | 0.0 | 2.0 | 0.00 | 0.00 | 0.00 | 82 | 1020.6 |
| 20260507004549 | 32 | 0 | 0.0 | 1.0 | 0.00 | 0.00 | 0.00 | 89 | 1020.6 |
| 20260507003047 | 31 | 112 | 0.0 | 3.0 | 0.00 | 0.00 | 0.00 | 87 | 1020.4 |
| 20260507001609 | 33 | 149 | 2.0 | 4.0 | 0.00 | 0.00 | 0.00 | 89 | 1020.4 |
| 20260507000048 | 31 | 139 | 2.0 | 4.0 | 0.00 | 0.00 | 0.00 | 91 | 1020.4 |
| 20260506234551 | 28 | 0 | 0.0 | 1.0 | 0.00 | 0.00 | 0.00 | 93 | 1020.4 |